createdAt,value
2018-12-31T00:00:54.019Z,6.36
2018-12-31T00:03:23.351Z,6.37
2018-12-31T00:05:53.438Z,6.38
2018-12-31T00:08:21.960Z,6.41
2018-12-31T00:10:51.263Z,6.39
2018-12-31T00:13:20.512Z,6.39
2018-12-31T00:15:49.879Z,6.42
2018-12-31T00:18:19.159Z,6.60
2018-12-31T00:20:48.469Z,6.49
2018-12-31T00:23:17.713Z,6.44
2018-12-31T00:25:47.197Z,6.43
2018-12-31T00:28:16.551Z,6.40
2018-12-31T00:30:45.851Z,6.38
2018-12-31T00:33:15.107Z,6.39
2018-12-31T00:35:44.367Z,6.35
2018-12-31T00:38:13.633Z,6.33
2018-12-31T00:40:42.963Z,6.34
2018-12-31T00:43:12.273Z,6.32
2018-12-31T00:45:41.570Z,6.33
2018-12-31T00:48:10.871Z,6.36
2018-12-31T00:50:40.180Z,6.35
2018-12-31T00:53:09.489Z,6.34
2018-12-31T00:55:38.775Z,6.31
2018-12-31T00:58:08.062Z,6.30
2018-12-31T01:00:37.320Z,6.33
2018-12-31T01:03:06.596Z,6.32
2018-12-31T01:05:35.839Z,6.32
2018-12-31T01:08:05.145Z,6.30
2018-12-31T01:10:34.466Z,6.39
2018-12-31T01:13:03.732Z,6.35
2018-12-31T01:15:33.006Z,6.32
2018-12-31T01:18:02.331Z,6.32
2018-12-31T01:20:31.678Z,6.33
2018-12-31T01:23:00.952Z,6.35
2018-12-31T01:25:30.220Z,6.37
2018-12-31T01:27:59.580Z,6.34
2018-12-31T01:30:28.906Z,6.35
2018-12-31T01:32:58.148Z,6.33
2018-12-31T01:35:27.518Z,6.32
2018-12-31T01:37:56.768Z,6.33
2018-12-31T01:40:26.068Z,6.40
2018-12-31T01:42:55.317Z,6.39
2018-12-31T01:45:24.605Z,6.41
2018-12-31T01:47:53.965Z,6.40
2018-12-31T01:50:23.157Z,6.44
2018-12-31T01:52:52.413Z,6.46
2018-12-31T01:55:21.656Z,6.45
2018-12-31T01:57:51.001Z,6.43
2018-12-31T02:00:20.241Z,6.41
2018-12-31T02:02:49.515Z,6.42
2018-12-31T02:05:18.762Z,6.41
2018-12-31T02:07:48.109Z,6.42
2018-12-31T02:10:17.313Z,6.42
2018-12-31T02:12:46.595Z,6.41
2018-12-31T02:15:15.848Z,6.44
2018-12-31T02:17:45.203Z,6.44
2018-12-31T02:20:14.431Z,6.43
2018-12-31T02:22:43.705Z,6.46
2018-12-31T02:25:12.953Z,6.46
2018-12-31T02:27:42.199Z,6.46
2018-12-31T02:30:11.493Z,6.50
2018-12-31T02:32:40.796Z,6.49
2018-12-31T02:35:10.071Z,6.52
2018-12-31T02:37:39.323Z,6.60
2018-12-31T02:40:08.623Z,6.54
2018-12-31T02:42:37.898Z,6.52
2018-12-31T02:45:07.325Z,6.51
2018-12-31T02:47:36.564Z,6.57
2018-12-31T02:50:06.332Z,6.55
2018-12-31T02:52:35.572Z,6.57
2018-12-31T02:55:04.929Z,6.62
2018-12-31T02:57:34.155Z,6.60
2018-12-31T03:00:04.070Z,6.57
2018-12-31T03:02:33.303Z,6.58
2018-12-31T03:05:02.636Z,6.69
2018-12-31T03:07:31.902Z,6.61
2018-12-31T03:10:01.231Z,6.58
2018-12-31T03:12:30.491Z,6.64
2018-12-31T03:14:59.747Z,6.64
2018-12-31T03:17:29.010Z,6.66
2018-12-31T03:19:58.279Z,6.64
2018-12-31T03:22:27.534Z,6.62
2018-12-31T03:24:56.836Z,6.69
2018-12-31T03:27:26.122Z,6.66
2018-12-31T03:29:55.384Z,6.64
2018-12-31T03:32:24.634Z,6.72
2018-12-31T03:34:53.917Z,6.72
2018-12-31T03:37:23.250Z,6.72
2018-12-31T03:39:52.643Z,6.72
2018-12-31T03:42:21.929Z,6.71
2018-12-31T03:44:51.178Z,6.66
2018-12-31T03:47:20.546Z,6.65
2018-12-31T03:49:49.798Z,6.61
2018-12-31T03:52:19.158Z,6.67
2018-12-31T03:54:48.426Z,6.68
2018-12-31T03:57:17.692Z,6.68
2018-12-31T03:59:46.958Z,6.65
2018-12-31T04:02:16.191Z,6.68
2018-12-31T04:04:45.561Z,6.65
2018-12-31T04:07:14.786Z,6.66
2018-12-31T04:09:44.061Z,6.68
2018-12-31T04:12:13.299Z,6.66
2018-12-31T04:14:42.563Z,6.69
2018-12-31T04:17:11.826Z,6.70
2018-12-31T04:19:41.083Z,6.70
2018-12-31T04:22:10.359Z,6.67
2018-12-31T04:24:39.608Z,6.64
2018-12-31T04:27:08.875Z,6.65
2018-12-31T04:29:38.144Z,6.63
2018-12-31T04:32:07.378Z,6.59
2018-12-31T04:34:36.643Z,6.61
2018-12-31T04:37:05.964Z,6.60
2018-12-31T04:39:35.236Z,6.67
2018-12-31T04:42:04.524Z,6.67
2018-12-31T04:44:33.800Z,6.68
2018-12-31T04:47:03.375Z,6.67
2018-12-31T04:49:32.650Z,6.67
2018-12-31T04:52:01.936Z,6.67
2018-12-31T04:54:31.180Z,6.65
2018-12-31T04:57:00.439Z,6.64
2018-12-31T04:59:29.756Z,6.69
2018-12-31T05:01:59.073Z,6.68
2018-12-31T05:04:28.361Z,6.68
2018-12-31T05:06:57.652Z,6.69
2018-12-31T05:09:26.904Z,6.67
2018-12-31T05:11:56.136Z,6.67
2018-12-31T05:14:25.419Z,6.65
2018-12-31T05:16:54.666Z,6.69
2018-12-31T05:19:23.939Z,6.73
2018-12-31T05:21:53.170Z,6.70
2018-12-31T05:24:22.430Z,6.72
2018-12-31T05:26:51.674Z,6.68
2018-12-31T05:29:20.957Z,6.66
2018-12-31T05:31:50.258Z,6.68
2018-12-31T05:34:19.509Z,6.67
2018-12-31T05:36:48.820Z,6.69
2018-12-31T05:39:18.067Z,6.67
2018-12-31T05:41:47.360Z,6.68
2018-12-31T05:44:16.592Z,6.74
2018-12-31T05:46:45.846Z,6.73
2018-12-31T05:49:15.179Z,6.78
2018-12-31T05:51:44.456Z,6.71
2018-12-31T05:54:13.714Z,6.71
2018-12-31T05:56:43.093Z,6.74
2018-12-31T05:59:12.467Z,6.72
2018-12-31T06:01:41.801Z,6.69
2018-12-31T06:04:11.066Z,6.69
2018-12-31T06:06:40.347Z,6.74
2018-12-31T06:09:09.577Z,6.73
2018-12-31T06:11:38.858Z,6.71
2018-12-31T06:14:08.105Z,6.29
2018-12-31T06:16:37.368Z,6.76
2018-12-31T06:19:06.627Z,6.71
2018-12-31T06:21:35.893Z,6.69
2018-12-31T06:24:05.159Z,6.68
2018-12-31T06:26:34.430Z,6.69
2018-12-31T06:29:03.727Z,6.68
2018-12-31T06:31:32.965Z,6.68
2018-12-31T06:34:02.243Z,6.72
2018-12-31T06:36:31.569Z,6.70
2018-12-31T06:39:00.850Z,6.72
2018-12-31T06:41:30.122Z,6.74
2018-12-31T06:43:59.507Z,6.73
2018-12-31T06:46:28.789Z,6.74
2018-12-31T06:48:58.023Z,6.73
2018-12-31T06:51:27.296Z,6.77
2018-12-31T06:53:56.557Z,6.77
2018-12-31T06:56:25.804Z,6.80
2018-12-31T06:58:55.059Z,6.84
2018-12-31T07:01:24.321Z,6.83
2018-12-31T07:03:53.578Z,6.86
2018-12-31T07:06:22.825Z,6.86
2018-12-31T07:08:52.186Z,6.89
2018-12-31T07:11:21.457Z,6.89
2018-12-31T07:13:50.697Z,6.94
2018-12-31T07:16:20.117Z,6.93
2018-12-31T07:18:49.376Z,6.89
2018-12-31T07:21:18.680Z,6.90
2018-12-31T07:23:47.949Z,6.97
2018-12-31T07:26:17.282Z,6.94
2018-12-31T07:28:46.595Z,7.01
2018-12-31T07:31:15.866Z,6.98
2018-12-31T07:33:45.126Z,6.95
2018-12-31T07:36:14.380Z,7.00
2018-12-31T07:38:43.684Z,7.02
2018-12-31T07:41:12.947Z,7.04
2018-12-31T07:43:42.316Z,7.04
2018-12-31T07:46:11.587Z,7.02
2018-12-31T07:48:40.884Z,7.07
2018-12-31T07:51:10.144Z,7.05
2018-12-31T07:53:39.405Z,7.08
2018-12-31T07:56:08.667Z,7.15
2018-12-31T07:58:38.008Z,7.16
2018-12-31T08:01:07.237Z,7.19
2018-12-31T08:03:36.480Z,7.18
2018-12-31T08:06:05.789Z,7.25
2018-12-31T08:08:35.048Z,7.25
2018-12-31T08:11:04.322Z,7.30
2018-12-31T08:13:33.590Z,7.30
2018-12-31T08:16:02.904Z,7.36
2018-12-31T08:18:32.158Z,7.36
2018-12-31T08:21:01.520Z,7.36
2018-12-31T08:23:30.790Z,7.40
2018-12-31T08:26:00.118Z,7.39
2018-12-31T08:28:29.389Z,7.42
2018-12-31T08:30:58.693Z,7.38
2018-12-31T08:33:28.004Z,7.39
2018-12-31T08:35:57.265Z,7.41
2018-12-31T08:38:26.576Z,7.45
2018-12-31T08:40:55.847Z,7.52
2018-12-31T08:43:25.175Z,7.52
2018-12-31T08:45:54.446Z,7.56
2018-12-31T08:48:23.719Z,7.54
2018-12-31T08:50:53.005Z,7.56
2018-12-31T08:53:22.281Z,7.60
2018-12-31T08:55:51.719Z,7.59
2018-12-31T08:58:21.045Z,7.57
2018-12-31T09:00:50.277Z,7.61
2018-12-31T09:03:19.622Z,7.57
2018-12-31T09:05:48.871Z,7.56
2018-12-31T09:08:18.253Z,7.54
2018-12-31T09:10:47.521Z,7.54
2018-12-31T09:13:16.799Z,7.61
2018-12-31T09:15:46.091Z,7.65
2018-12-31T09:18:15.423Z,7.64
2018-12-31T09:20:44.717Z,7.60
2018-12-31T09:23:13.985Z,7.63
2018-12-31T09:25:43.274Z,7.62
2018-12-31T09:28:12.521Z,7.66
2018-12-31T09:30:41.796Z,7.73
2018-12-31T09:33:11.064Z,7.74
2018-12-31T09:35:40.361Z,7.77
2018-12-31T09:38:09.594Z,7.83
2018-12-31T09:40:38.838Z,7.86
2018-12-31T09:43:08.102Z,7.88
2018-12-31T09:45:37.376Z,7.91
2018-12-31T09:48:06.667Z,7.91
2018-12-31T09:50:35.906Z,7.95
2018-12-31T09:53:05.172Z,8.00
2018-12-31T09:55:34.410Z,8.00
2018-12-31T09:58:03.671Z,8.03
2018-12-31T10:00:32.995Z,8.09
2018-12-31T10:03:02.266Z,8.06
2018-12-31T10:05:31.538Z,8.05
2018-12-31T10:08:00.816Z,8.11
2018-12-31T10:10:30.062Z,8.08
2018-12-31T10:12:59.341Z,8.06
2018-12-31T10:15:28.590Z,8.06
2018-12-31T10:17:57.830Z,8.05
2018-12-31T10:20:27.103Z,8.06
2018-12-31T10:22:56.420Z,8.07
2018-12-31T10:25:25.688Z,8.08
2018-12-31T10:27:54.980Z,8.10
2018-12-31T10:30:24.247Z,8.11
2018-12-31T10:32:53.530Z,8.12
2018-12-31T10:35:22.865Z,8.08
2018-12-31T10:37:52.234Z,8.12
2018-12-31T10:40:21.547Z,8.09
2018-12-31T10:42:50.780Z,8.10
2018-12-31T10:45:20.068Z,8.12
2018-12-31T10:47:49.321Z,8.10
2018-12-31T10:50:18.632Z,8.11
2018-12-31T10:52:47.890Z,8.11
2018-12-31T10:55:17.234Z,8.11
2018-12-31T10:57:46.521Z,8.13
2018-12-31T11:00:15.795Z,8.13
2018-12-31T11:02:45.080Z,8.13
2018-12-31T11:05:14.346Z,8.11
2018-12-31T11:07:43.648Z,8.14
2018-12-31T11:10:12.885Z,8.11
2018-12-31T11:12:42.156Z,8.14
2018-12-31T11:15:11.442Z,8.18
2018-12-31T11:17:40.721Z,8.18
2018-12-31T11:20:09.981Z,8.18
2018-12-31T11:22:39.394Z,8.19
2018-12-31T11:25:08.750Z,8.25
2018-12-31T11:27:38.065Z,8.26
2018-12-31T11:30:08.166Z,8.28
2018-12-31T11:32:37.566Z,8.36
2018-12-31T11:35:07.292Z,8.35
2018-12-31T11:37:36.559Z,8.46
2018-12-31T11:40:06.804Z,8.53
2018-12-31T11:42:36.123Z,8.55
2018-12-31T11:45:06.114Z,8.62
2018-12-31T11:47:35.443Z,8.62
2018-12-31T11:50:04.747Z,8.64
2018-12-31T11:52:34.258Z,8.62
2018-12-31T11:55:03.668Z,8.52
2018-12-31T11:57:32.827Z,8.53
2018-12-31T12:00:02.168Z,8.51
2018-12-31T12:02:31.532Z,8.42
2018-12-31T12:05:00.852Z,8.43
2018-12-31T12:07:30.137Z,8.39
2018-12-31T12:09:59.653Z,8.39
2018-12-31T12:12:28.908Z,8.33
2018-12-31T12:14:58.129Z,8.30
2018-12-31T12:17:27.480Z,8.25
2018-12-31T12:19:56.754Z,8.25
2018-12-31T12:22:26.077Z,8.22
2018-12-31T12:24:55.389Z,8.25
2018-12-31T12:27:24.653Z,8.24
2018-12-31T12:29:53.940Z,8.23
2018-12-31T12:32:23.260Z,8.22
2018-12-31T12:34:52.518Z,8.22
2018-12-31T12:37:21.889Z,8.22
2018-12-31T12:39:51.261Z,8.22
2018-12-31T12:42:20.537Z,8.24
2018-12-31T12:44:49.858Z,8.30
2018-12-31T12:47:19.130Z,8.37
2018-12-31T12:49:48.488Z,8.28
2018-12-31T12:52:17.765Z,8.25
2018-12-31T12:54:47.104Z,8.28
2018-12-31T12:57:16.473Z,8.34
2018-12-31T12:59:45.749Z,8.30
2018-12-31T13:02:15.013Z,8.29
2018-12-31T13:04:44.314Z,8.31
2018-12-31T13:07:13.672Z,8.24
2018-12-31T13:09:42.967Z,8.23
2018-12-31T13:12:12.385Z,8.24
2018-12-31T13:14:41.650Z,8.22
2018-12-31T13:17:10.959Z,8.28
2018-12-31T13:19:40.298Z,8.29
2018-12-31T13:22:09.570Z,8.22
2018-12-31T13:24:39.187Z,8.22
2018-12-31T13:27:08.514Z,8.26
2018-12-31T13:29:37.918Z,8.25
2018-12-31T13:32:07.317Z,8.29
2018-12-31T13:34:36.587Z,8.22
2018-12-31T13:37:05.890Z,8.26
2018-12-31T13:39:35.205Z,8.22
2018-12-31T13:42:04.530Z,8.19
2018-12-31T13:44:33.904Z,8.19
2018-12-31T13:47:03.231Z,8.22
2018-12-31T13:49:32.593Z,8.30
2018-12-31T13:52:01.855Z,8.22
2018-12-31T13:54:31.242Z,8.22
2018-12-31T13:57:00.547Z,8.25
2018-12-31T13:59:29.859Z,8.23
2018-12-31T14:01:59.105Z,8.30
2018-12-31T14:04:28.540Z,8.29
2018-12-31T14:06:57.813Z,8.32
2018-12-31T14:09:27.154Z,8.36
2018-12-31T14:11:56.385Z,8.31
2018-12-31T14:14:25.755Z,8.28
2018-12-31T14:16:55.033Z,8.28
2018-12-31T14:19:24.365Z,8.29
2018-12-31T14:21:53.744Z,8.31
2018-12-31T14:24:23.043Z,8.34
2018-12-31T14:27:00.323Z,8.29
2018-12-31T14:29:21.733Z,8.36
2018-12-31T14:31:51.050Z,8.36
2018-12-31T14:34:20.336Z,8.32
2018-12-31T14:36:49.666Z,8.38
2018-12-31T14:39:19.041Z,8.35
2018-12-31T14:41:48.377Z,8.38
2018-12-31T14:44:17.621Z,8.36
2018-12-31T14:46:46.963Z,8.32
2018-12-31T14:49:16.248Z,8.30
2018-12-31T14:51:45.565Z,8.34
2018-12-31T14:54:14.949Z,8.40
2018-12-31T14:56:44.242Z,8.37
2018-12-31T14:59:13.534Z,8.36
2018-12-31T15:01:42.835Z,8.36
2018-12-31T15:04:12.126Z,8.43
2018-12-31T15:06:41.457Z,8.36
2018-12-31T15:09:10.754Z,8.42
2018-12-31T15:11:40.088Z,8.36
2018-12-31T15:14:09.454Z,8.38
2018-12-31T15:16:38.734Z,8.32
2018-12-31T15:19:07.999Z,8.32
2018-12-31T15:21:37.369Z,8.41
2018-12-31T15:24:06.791Z,8.39
2018-12-31T15:26:36.042Z,8.42
2018-12-31T15:29:05.326Z,8.39
2018-12-31T15:31:34.665Z,8.40
2018-12-31T15:34:03.950Z,8.37
2018-12-31T15:36:33.259Z,8.39
2018-12-31T15:39:02.545Z,8.36
2018-12-31T15:41:31.840Z,8.37
2018-12-31T15:44:01.139Z,8.36
2018-12-31T15:46:30.477Z,8.44
2018-12-31T15:48:59.773Z,8.43
2018-12-31T15:51:29.086Z,8.40
2018-12-31T15:53:58.368Z,8.43
2018-12-31T15:56:27.678Z,8.41
2018-12-31T15:58:56.990Z,8.45
2018-12-31T16:01:26.295Z,8.47
2018-12-31T16:03:55.581Z,8.48
2018-12-31T16:06:24.868Z,8.45
2018-12-31T16:08:54.189Z,8.49
2018-12-31T16:11:23.466Z,8.50
2018-12-31T16:13:52.791Z,8.47
2018-12-31T16:16:22.120Z,8.41
2018-12-31T16:18:51.379Z,8.45
2018-12-31T16:21:20.692Z,8.44
2018-12-31T16:23:49.983Z,8.40
2018-12-31T16:26:19.254Z,8.43
2018-12-31T16:28:48.585Z,8.40
2018-12-31T16:31:17.883Z,8.41
2018-12-31T16:33:47.213Z,8.41
2018-12-31T16:36:16.521Z,8.38
2018-12-31T16:38:45.805Z,8.29
2018-12-31T16:41:15.061Z,8.29
2018-12-31T16:43:44.447Z,8.37
2018-12-31T16:46:13.722Z,8.37
2018-12-31T16:48:42.994Z,8.34
2018-12-31T16:51:12.327Z,8.38
2018-12-31T16:53:41.602Z,8.40
2018-12-31T16:56:10.869Z,8.36
2018-12-31T16:58:40.159Z,8.40
2018-12-31T17:01:09.483Z,8.38
2018-12-31T17:03:38.802Z,8.38
2018-12-31T17:06:08.114Z,8.36
2018-12-31T17:08:37.389Z,8.36
2018-12-31T17:11:06.719Z,8.37
2018-12-31T17:13:36.000Z,8.40
2018-12-31T17:16:05.309Z,8.39
2018-12-31T17:18:34.755Z,8.39
2018-12-31T17:21:04.011Z,8.39
2018-12-31T17:23:33.300Z,8.47
2018-12-31T17:26:02.583Z,8.49
2018-12-31T17:28:31.856Z,8.49
2018-12-31T17:31:01.144Z,8.52
2018-12-31T17:33:30.443Z,8.48
2018-12-31T17:35:59.733Z,8.50
2018-12-31T17:38:28.979Z,8.50
2018-12-31T17:40:58.267Z,8.45
2018-12-31T17:43:27.519Z,8.44
2018-12-31T17:45:56.820Z,8.41
2018-12-31T17:48:26.076Z,8.44
2018-12-31T17:50:55.363Z,8.47
2018-12-31T17:53:24.630Z,8.45
2018-12-31T17:55:54.052Z,8.46
2018-12-31T17:58:23.306Z,8.46
2018-12-31T18:00:52.602Z,8.48
2018-12-31T18:03:21.880Z,8.43
2018-12-31T18:05:51.221Z,8.43
2018-12-31T18:08:20.511Z,8.51
2018-12-31T18:10:49.835Z,8.51
2018-12-31T18:13:19.190Z,8.52
2018-12-31T18:15:48.459Z,8.54
2018-12-31T18:18:17.745Z,8.54
2018-12-31T18:20:47.149Z,8.53
2018-12-31T18:23:16.496Z,8.51
2018-12-31T18:25:45.831Z,8.53
2018-12-31T18:28:15.109Z,8.54
2018-12-31T18:30:44.543Z,8.56
2018-12-31T18:33:13.796Z,8.47
2018-12-31T18:35:43.142Z,8.51
2018-12-31T18:38:12.460Z,8.47
2018-12-31T18:40:41.734Z,8.46
2018-12-31T18:43:10.991Z,8.43
2018-12-31T18:45:40.306Z,8.43
2018-12-31T18:48:09.616Z,8.47
2018-12-31T18:50:38.844Z,8.43
2018-12-31T18:53:08.120Z,8.48
2018-12-31T18:55:37.457Z,8.49
2018-12-31T18:58:06.744Z,8.52
2018-12-31T19:00:36.038Z,8.52
2018-12-31T19:03:05.598Z,8.47
2018-12-31T19:05:35.884Z,8.55
2018-12-31T19:08:05.182Z,8.59
2018-12-31T19:10:34.496Z,8.55
2018-12-31T19:13:03.759Z,8.52
2018-12-31T19:15:33.047Z,8.47
2018-12-31T19:18:02.394Z,8.47
2018-12-31T19:20:31.870Z,8.51
2018-12-31T19:23:01.159Z,8.48
2018-12-31T19:25:30.431Z,8.51
2018-12-31T19:27:59.704Z,8.51
2018-12-31T19:30:28.953Z,8.51
2018-12-31T19:32:58.255Z,8.49
2018-12-31T19:35:27.479Z,8.49
2018-12-31T19:37:56.746Z,8.49
2018-12-31T19:40:26.091Z,8.52
2018-12-31T19:42:55.448Z,8.52
2018-12-31T19:45:24.679Z,8.46
2018-12-31T19:47:55.705Z,8.46
2018-12-31T19:50:23.212Z,8.51
2018-12-31T19:52:52.505Z,8.49
2018-12-31T19:55:21.811Z,8.47
2018-12-31T19:57:51.066Z,8.46
2018-12-31T20:00:20.434Z,8.46
2018-12-31T20:02:49.690Z,8.44
2018-12-31T20:05:18.950Z,8.43
2018-12-31T20:07:48.223Z,8.39
2018-12-31T20:10:17.501Z,8.39
2018-12-31T20:12:46.749Z,8.43
2018-12-31T20:15:16.049Z,8.45
2018-12-31T20:17:45.294Z,8.45
2018-12-31T20:20:14.543Z,8.48
2018-12-31T20:22:43.829Z,8.50
2018-12-31T20:25:13.079Z,8.47
2018-12-31T20:27:42.342Z,8.45
2018-12-31T20:30:11.587Z,8.45
2018-12-31T20:32:40.850Z,8.44
2018-12-31T20:35:10.089Z,8.45
2018-12-31T20:37:39.405Z,8.49
2018-12-31T20:40:08.706Z,8.51
2018-12-31T20:42:37.995Z,8.49
2018-12-31T20:45:07.273Z,8.44
2018-12-31T20:47:36.630Z,8.44
2018-12-31T20:50:06.148Z,8.42
2018-12-31T20:52:35.587Z,8.50
2018-12-31T20:55:05.117Z,8.46
2018-12-31T20:57:34.417Z,8.43
2018-12-31T21:00:03.749Z,8.43
2018-12-31T21:02:33.031Z,8.44
2018-12-31T21:05:02.295Z,8.36
2018-12-31T21:07:31.550Z,8.34
2018-12-31T21:10:00.830Z,8.31
2018-12-31T21:12:30.085Z,8.32
2018-12-31T21:14:59.365Z,8.26
2018-12-31T21:17:28.743Z,8.29
2018-12-31T21:19:58.037Z,8.25
2018-12-31T21:22:27.302Z,8.25
2018-12-31T21:24:56.602Z,8.26
2018-12-31T21:27:25.855Z,8.21
2018-12-31T21:29:55.143Z,8.21
2018-12-31T21:32:24.400Z,8.19
2018-12-31T21:34:53.672Z,8.19
2018-12-31T21:37:22.915Z,8.22
2018-12-31T21:39:52.179Z,8.19
2018-12-31T21:42:21.450Z,8.18
2018-12-31T21:44:50.713Z,8.21
2018-12-31T21:47:22.399Z,8.21
2018-12-31T21:49:49.225Z,8.22
2018-12-31T21:52:18.497Z,8.28
2018-12-31T21:54:47.743Z,8.26
2018-12-31T21:57:18.230Z,8.28
2018-12-31T21:59:46.281Z,8.24
2018-12-31T22:02:15.566Z,8.26
2018-12-31T22:04:44.861Z,8.26
2018-12-31T22:07:14.129Z,8.26
2018-12-31T22:09:43.405Z,8.29
2018-12-31T22:12:12.768Z,8.25
2018-12-31T22:14:42.041Z,8.19
2018-12-31T22:17:11.337Z,8.23
2018-12-31T22:19:40.609Z,8.21
2018-12-31T22:22:09.886Z,8.26
2018-12-31T22:24:39.218Z,8.25
2018-12-31T22:27:08.539Z,8.29
2018-12-31T22:29:37.821Z,8.29
2018-12-31T22:32:07.069Z,8.26
2018-12-31T22:34:36.358Z,8.30
2018-12-31T22:37:05.615Z,8.28
2018-12-31T22:39:34.943Z,8.31
2018-12-31T22:42:04.221Z,8.30
2018-12-31T22:44:33.482Z,8.22
2018-12-31T22:47:02.774Z,8.19
2018-12-31T22:49:32.032Z,8.20
2018-12-31T22:52:01.324Z,8.25
2018-12-31T22:54:30.556Z,8.26
2018-12-31T22:56:59.844Z,8.25
2018-12-31T22:59:29.148Z,8.33
2018-12-31T23:01:58.407Z,8.27
2018-12-31T23:04:27.692Z,8.31
2018-12-31T23:07:00.687Z,8.35
2018-12-31T23:09:29.920Z,8.33
2018-12-31T23:11:59.164Z,8.26
2018-12-31T23:14:28.425Z,8.30
2018-12-31T23:17:00.900Z,8.30
2018-12-31T23:19:30.180Z,8.26
2018-12-31T23:21:59.423Z,8.31
2018-12-31T23:24:28.742Z,8.30
2018-12-31T23:26:58.208Z,8.28
2018-12-31T23:29:27.387Z,8.26
2018-12-31T23:31:56.686Z,8.26
2018-12-31T23:34:26.054Z,8.24
2018-12-31T23:36:55.329Z,8.26
2018-12-31T23:39:24.640Z,8.26
2018-12-31T23:41:53.902Z,8.30
2018-12-31T23:44:23.164Z,8.30
2018-12-31T23:46:52.497Z,8.29
2018-12-31T23:49:21.720Z,8.34
2018-12-31T23:51:50.986Z,8.25
2018-12-31T23:54:20.255Z,8.25
2018-12-31T23:56:50.626Z,8.17
2018-12-31T23:59:18.774Z,8.17
